Chariton Municipal Airport


Codes: KCNC/
Name: Chariton Municipal Airport
City: Chariton
Country: United States
Elevation: 1050 ft.

Photos at Chariton Municipal Airport


   Photos courtesy of SpottingLog. You can add your own sightings and photos by signing up for a free trial today.



No photos found.

Weather at Chariton Municipal Airport


Time (UTC)DescriptionTempratureWindCloud coverageVisibilityPressureHumidity
21-Feb-2024 03:00Scattered Clouds10°C11 mph, S32%10000m1016hPa47%
21-Feb-2024 06:00Few Clouds9°C13 mph, S23%10000m1015hPa57%
21-Feb-2024 09:00Few Clouds8°C13 mph, SW24%10000m1014hPa72%
21-Feb-2024 12:00Broken Clouds6°C7 mph, SW60%10000m1014hPa83%
21-Feb-2024 15:00Overcast Clouds9°C4 mph, W100%10000m1013hPa72%
21-Feb-2024 18:00Overcast Clouds13°C2 mph, E100%10000m1012hPa54%
21-Feb-2024 21:00Overcast Clouds16°C4 mph, SE88%10000m1008hPa48%
22-Feb-2024 00:00Overcast Clouds12°C7 mph, NE87%10000m1007hPa66%
22-Feb-2024 03:00Overcast Clouds10°C7 mph, NE100%10000m1007hPa71%
22-Feb-2024 06:00Overcast Clouds9°C7 mph, NE100%10000m1006hPa75%
22-Feb-2024 09:00Overcast Clouds8°C7 mph, NE100%10000m1006hPa75%
22-Feb-2024 12:00Overcast Clouds8°C11 mph, N100%10000m1007hPa74%
22-Feb-2024 15:00Overcast Clouds8°C9 mph, N98%10000m1008hPa68%
22-Feb-2024 18:00Overcast Clouds13°C13 mph, NW99%10000m1009hPa49%
22-Feb-2024 21:00Overcast Clouds13°C16 mph, NW88%10000m1008hPa46%
23-Feb-2024 00:00Broken Clouds10°C13 mph, NW62%10000m1010hPa56%
23-Feb-2024 03:00Clear Sky7°C13 mph, NW3%10000m1012hPa66%
23-Feb-2024 06:00Clear Sky5°C11 mph, NW1%10000m1012hPa75%
23-Feb-2024 09:00Clear Sky3°C9 mph, NW0%10000m1012hPa80%
23-Feb-2024 12:00Clear Sky2°C7 mph, W0%10000m1013hPa83%
23-Feb-2024 15:00Clear Sky5°C9 mph, NW3%10000m1013hPa66%
23-Feb-2024 18:00Clear Sky10°C11 mph, NW7%10000m1011hPa48%
23-Feb-2024 21:00Broken Clouds12°C13 mph, NW75%10000m1009hPa47%
24-Feb-2024 00:00Broken Clouds8°C11 mph, NW80%10000m1010hPa60%
24-Feb-2024 03:00Broken Clouds6°C9 mph, N74%10000m1013hPa71%
24-Feb-2024 06:00Broken Clouds3°C9 mph, N66%10000m1015hPa75%
24-Feb-2024 09:00Clear Sky1°C9 mph, N8%10000m1018hPa82%
24-Feb-2024 12:00Clear Sky-1°C4 mph, N8%10000m1019hPa82%
24-Feb-2024 15:00Clear Sky1°C2 mph, S4%10000m1020hPa61%
24-Feb-2024 18:00Clear Sky7°C9 mph, SW2%10000m1017hPa49%
24-Feb-2024 21:00Scattered Clouds10°C13 mph, SW36%10000m1013hPa50%
25-Feb-2024 00:00Scattered Clouds8°C9 mph, S37%10000m1011hPa65%
25-Feb-2024 03:00Clear Sky8°C16 mph, S0%10000m1009hPa68%
25-Feb-2024 06:00Clear Sky7°C13 mph, SW0%10000m1008hPa65%
25-Feb-2024 09:00Clear Sky5°C9 mph, SW0%10000m1007hPa69%
25-Feb-2024 12:00Few Clouds5°C7 mph, SW11%10000m1007hPa59%
25-Feb-2024 15:00Clear Sky9°C7 mph, NW8%10000m1008hPa51%
25-Feb-2024 18:00Clear Sky14°C7 mph, NW7%10000m1008hPa40%
25-Feb-2024 21:00Clear Sky15°C4 mph, N10%10000m1007hPa36%
26-Feb-2024 00:00Clear Sky11°C4 mph, NE7%10000m1008hPa51%